Time;durP1;ratioP1;P1;durP2;ratioP2;P2;SDS_P1;SDS_P2;PMS_P1;PMS_P2;Temp;Humidity;BMP_temperature;BMP_pressure;BME280_temperature;BME280_humidity;BME280_pressure;Samples;Min_cycle;Max_cycle;Signal;HPM_P1;HPM_P2
2022/03/11 00:01:53;;;;;;;14.20;9.60;;;5.50;99.90;;;;;;5110861;28;20059;-90
2022/03/11 00:04:19;;;;;;;15.40;9.57;;;5.40;99.90;;;;;;5094360;28;20047;-91
2022/03/11 00:07:03;;;;;;;16.67;9.18;;;6.00;99.90;;;;;;5109504;28;20347;-90
2022/03/11 00:09:29;;;;;;;14.13;9.20;;;5.30;99.90;;;;;;5075697;28;20079;-91
2022/03/11 00:11:55;;;;;;;15.75;9.93;;;5.50;99.90;;;;;;5092169;28;20138;-91
2022/03/11 00:14:20;;;;;;;15.48;9.57;;;5.20;99.90;;;;;;5092599;28;20040;-90
2022/03/11 00:16:47;;;;;;;14.30;9.35;;;5.10;99.90;;;;;;5075833;28;20101;-91
2022/03/11 00:19:12;;;;;;;12.48;8.68;;;5.10;99.90;;;;;;5113663;28;20124;-89
2022/03/11 00:21:38;;;;;;;15.43;8.73;;;5.60;99.90;;;;;;5079668;28;20056;-90
2022/03/11 00:24:04;;;;;;;15.70;9.88;;;5.00;99.90;;;;;;5080942;28;20091;-91
2022/03/11 00:26:32;;;;;;;15.32;9.68;;;5.00;99.90;;;;;;5098342;28;20101;-92
2022/03/11 00:28:58;;;;;;;13.68;9.10;;;4.90;99.90;;;;;;5098268;28;20094;-91
2022/03/11 00:31:25;;;;;;;17.42;9.50;;;4.90;99.90;;;;;;5098106;28;20043;-91
2022/03/11 00:33:50;;;;;;;17.30;9.10;;;4.90;99.90;;;;;;5081039;28;20086;-93
2022/03/11 00:36:16;;;;;;;12.73;8.75;;;4.90;99.90;;;;;;5097689;28;20087;-92
2022/03/11 00:38:42;;;;;;;14.27;8.88;;;5.00;99.90;;;;;;5115062;28;20079;-92
2022/03/11 00:41:07;;;;;;;16.92;9.80;;;4.80;99.90;;;;;;5114969;28;20078;-92
2022/03/11 00:43:33;;;;;;;17.60;8.57;;;4.90;99.90;;;;;;5110277;28;20108;-91
2022/03/11 00:45:59;;;;;;;15.60;8.77;;;5.00;99.90;;;;;;5085448;28;20031;-91
2022/03/11 00:48:24;;;;;;;11.55;8.52;;;4.80;99.90;;;;;;5116451;28;20134;-92
2022/03/11 00:50:50;;;;;;;16.13;8.75;;;4.70;99.90;;;;;;5097174;28;20047;-92
2022/03/11 00:53:16;;;;;;;13.43;9.05;;;4.70;99.90;;;;;;5097776;28;20051;-92
2022/03/11 00:55:41;;;;;;;15.27;9.18;;;4.60;99.90;;;;;;5098048;28;20052;-92
2022/03/11 00:58:07;;;;;;;16.52;9.57;;;4.60;99.90;;;;;;5114186;28;20117;-92
2022/03/11 01:00:33;;;;;;;13.85;8.88;;;4.60;99.90;;;;;;5097144;28;20047;-92
2022/03/11 01:02:58;;;;;;;13.63;9.13;;;4.80;99.90;;;;;;5097110;28;20090;-90
2022/03/11 01:05:25;;;;;;;14.38;9.30;;;4.90;99.90;;;;;;5097308;28;20077;-91
2022/03/11 01:07:51;;;;;;;15.10;9.50;;;4.60;99.90;;;;;;5081123;28;20052;-89
2022/03/11 01:10:16;;;;;;;17.17;10.02;;;5.00;99.90;;;;;;5097973;28;20058;-91
2022/03/11 01:12:45;;;;;;;14.35;9.45;;;4.70;99.90;;;;;;5097540;28;20444;-92
2022/03/11 01:15:11;;;;;;;16.25;8.93;;;4.50;99.90;;;;;;5118367;28;20044;-91
2022/03/11 01:17:37;;;;;;;14.48;9.73;;;4.60;99.90;;;;;;5101125;28;20035;-88
2022/03/11 01:20:03;;;;;;;15.38;9.80;;;4.50;99.90;;;;;;5134502;28;20081;-91
2022/03/11 01:22:30;;;;;;;14.02;9.77;;;4.50;99.90;;;;;;5110331;28;20164;-91
2022/03/11 01:24:55;;;;;;;14.32;9.65;;;4.50;99.90;;;;;;5083811;28;20063;-90
2022/03/11 01:27:21;;;;;;;14.90;9.70;;;4.40;99.90;;;;;;5095464;28;20058;-91
2022/03/11 01:29:47;;;;;;;15.38;10.80;;;5.00;99.90;;;;;;5122880;28;20051;-91
2022/03/11 01:32:12;;;;;;;13.70;9.82;;;4.50;99.90;;;;;;5097864;28;20047;-91
2022/03/11 01:34:38;;;;;;;16.05;10.45;;;4.50;99.90;;;;;;5115224;28;20048;-93
2022/03/11 01:37:04;;;;;;;14.60;10.00;;;4.40;99.90;;;;;;5064747;28;20090;-93
2022/03/11 01:39:30;;;;;;;15.30;9.98;;;4.40;99.90;;;;;;5081856;28;20082;-93
2022/03/11 01:41:56;;;;;;;16.63;10.77;;;4.50;99.90;;;;;;5081062;28;20499;-91
2022/03/11 01:44:24;;;;;;;16.05;10.85;;;4.50;99.90;;;;;;5097213;28;20048;-92
2022/03/11 01:46:49;;;;;;;21.05;11.50;;;4.40;99.90;;;;;;5063424;28;20048;-93
2022/03/11 01:49:15;;;;;;;19.65;11.35;;;4.30;99.90;;;;;;5102929;28;20318;-91
2022/03/11 01:51:42;;;;;;;16.42;11.60;;;4.40;99.90;;;;;;5100527;28;20181;-92
2022/03/11 01:54:08;;;;;;;23.75;12.52;;;4.30;99.90;;;;;;5079217;28;20060;-91
2022/03/11 01:56:33;;;;;;;18.45;10.90;;;4.80;99.90;;;;;;5079672;28;20058;-91
2022/03/11 01:58:59;;;;;;;18.63;12.32;;;4.50;99.90;;;;;;5079249;28;20051;-91
2022/03/11 02:01:25;;;;;;;19.40;11.75;;;4.60;99.90;;;;;;5114513;27;20051;-90
2022/03/11 02:03:50;;;;;;;19.23;11.98;;;4.50;99.90;;;;;;5062165;28;20518;-91
2022/03/11 02:06:16;;;;;;;18.08;12.05;;;4.50;99.90;;;;;;5112971;28;20059;-90
2022/03/11 02:08:42;;;;;;;20.08;12.52;;;4.20;99.90;;;;;;5113222;28;20134;-91
2022/03/11 02:11:08;;;;;;;21.23;12.80;;;4.10;99.90;;;;;;5078688;28;20051;-91
2022/03/11 02:13:54;;;;;;;18.15;13.10;;;4.10;99.90;;;;;;5113190;28;20044;-92
2022/03/11 02:16:30;;;;;;;21.48;13.13;;;4.20;99.90;;;;;;5095142;28;20047;-91
2022/03/11 02:18:56;;;;;;;22.42;13.05;;;4.10;99.90;;;;;;5095622;28;20044;-90
2022/03/11 02:21:22;;;;;;;20.52;13.68;;;4.10;99.90;;;;;;5094960;28;20043;-90
2022/03/11 02:23:48;;;;;;;19.27;13.20;;;4.90;99.90;;;;;;5095696;28;20066;-92
2022/03/11 02:26:14;;;;;;;21.25;14.23;;;4.80;99.90;;;;;;5078541;28;20055;-91
2022/03/11 02:28:40;;;;;;;23.38;14.77;;;4.30;99.90;;;;;;5078911;28;20051;-92
2022/03/11 02:31:06;;;;;;;25.42;14.88;;;4.00;99.90;;;;;;5094439;28;20077;-91
2022/03/11 02:33:32;;;;;;;23.45;14.35;;;4.00;99.90;;;;;;5078352;28;20088;-90
2022/03/11 02:35:57;;;;;;;22.02;14.45;;;4.20;99.90;;;;;;5091655;28;20056;-89
2022/03/11 02:38:23;;;;;;;22.75;15.38;;;4.10;99.90;;;;;;5118267;28;20027;-90
2022/03/11 02:40:49;;;;;;;26.63;16.27;;;4.40;99.90;;;;;;5112895;28;20047;-90
2022/03/11 02:43:15;;;;;;;27.00;16.10;;;4.00;99.90;;;;;;5077850;28;20547;-90
2022/03/11 02:45:41;;;;;;;26.38;15.48;;;4.70;99.90;;;;;;5078384;28;20078;-91
2022/03/11 02:48:06;;;;;;;24.70;15.65;;;4.10;99.90;;;;;;5111856;28;20131;-90
2022/03/11 02:50:32;;;;;;;22.80;15.45;;;4.50;99.90;;;;;;5112200;28;20051;-91
2022/03/11 02:52:58;;;;;;;26.02;16.45;;;3.90;99.90;;;;;;5078247;28;20048;-90
2022/03/11 02:55:23;;;;;;;26.08;16.15;;;3.90;99.90;;;;;;5078118;28;20052;-92
2022/03/11 02:57:49;;;;;;;24.85;16.95;;;3.90;99.90;;;;;;5103507;28;20038;-89
2022/03/11 03:00:15;;;;;;;27.60;16.92;;;3.90;99.90;;;;;;5106086;28;20064;-92
2022/03/11 03:02:41;;;;;;;25.52;17.20;;;3.80;99.90;;;;;;5094705;28;20464;-91
2022/03/11 03:05:07;;;;;;;26.73;17.67;;;3.80;99.90;;;;;;5094713;28;20079;-92
2022/03/11 03:07:33;;;;;;;25.27;17.33;;;3.80;99.90;;;;;;5094918;28;20110;-89
2022/03/11 03:09:58;;;;;;;28.92;17.85;;;3.80;99.90;;;;;;5094739;28;20126;-91
2022/03/11 03:12:25;;;;;;;25.70;17.55;;;3.80;99.90;;;;;;5060488;28;20055;-90
2022/03/11 03:14:51;;;;;;;27.67;18.40;;;3.80;99.90;;;;;;5094603;28;20105;-90
2022/03/11 03:17:18;;;;;;;28.48;18.80;;;3.80;99.90;;;;;;5111301;28;20051;-90
2022/03/11 03:19:44;;;;;;;30.85;18.17;;;3.80;99.90;;;;;;5078253;28;20131;-91
2022/03/11 03:22:10;;;;;;;28.40;17.77;;;3.80;99.90;;;;;;5111494;28;20429;-90
2022/03/11 03:24:36;;;;;;;32.53;18.73;;;3.70;99.90;;;;;;5077537;28;20040;-91
2022/03/11 03:27:02;;;;;;;29.00;19.13;;;4.30;99.90;;;;;;5094403;28;20058;-90
2022/03/11 03:29:28;;;;;;;26.90;18.10;;;3.70;99.90;;;;;;5111454;28;20072;-91
2022/03/11 03:31:57;;;;;;;30.63;18.50;;;3.70;99.90;;;;;;5094224;28;20368;-89
2022/03/11 03:34:26;;;;;;;31.70;18.73;;;3.70;99.90;;;;;;5077758;28;20052;-91
2022/03/11 03:36:52;;;;;;;28.88;18.05;;;4.90;99.90;;;;;;5077583;28;20055;-92
2022/03/11 03:39:18;;;;;;;31.17;18.77;;;3.70;99.90;;;;;;5111003;28;20058;-91
2022/03/11 03:41:43;;;;;;;30.65;19.80;;;3.60;99.90;;;;;;5077632;28;20149;-92
2022/03/11 03:44:09;;;;;;;32.45;19.38;;;3.60;99.90;;;;;;5094081;28;20090;-90
2022/03/11 03:46:35;;;;;;;31.80;19.15;;;4.90;99.90;;;;;;5111253;28;20039;-91
2022/03/11 03:49:01;;;;;;;32.30;19.92;;;3.60;99.90;;;;;;5110880;28;20051;-91
2022/03/11 03:51:26;;;;;;;30.02;20.35;;;4.40;99.90;;;;;;5093819;28;20108;-89
2022/03/11 03:53:52;;;;;;;30.30;19.67;;;3.50;99.90;;;;;;5094041;28;20086;-90
2022/03/11 03:56:18;;;;;;;27.70;17.67;;;4.60;99.90;;;;;;5093836;28;20479;-91
2022/03/11 03:58:43;;;;;;;32.25;19.25;;;3.60;99.90;;;;;;5111422;28;20472;-92
2022/03/11 04:01:09;;;;;;;30.35;19.85;;;3.40;99.90;;;;;;5094036;28;20474;-91
2022/03/11 04:03:35;;;;;;;30.85;19.50;;;3.40;99.90;;;;;;5093633;28;20400;-90
2022/03/11 04:06:01;;;;;;;33.40;19.33;;;3.30;99.90;;;;;;5093979;28;20089;-91
2022/03/11 04:08:27;;;;;;;28.67;19.33;;;3.30;99.90;;;;;;5093807;28;20063;-90
2022/03/11 04:10:53;;;;;;;34.25;21.02;;;3.30;99.90;;;;;;5093942;28;20048;-91
2022/03/11 04:13:18;;;;;;;33.40;20.83;;;3.30;99.90;;;;;;5094030;28;20048;-90
2022/03/11 04:15:44;;;;;;;34.40;20.40;;;3.30;99.90;;;;;;5076995;28;20083;-90
2022/03/11 04:18:10;;;;;;;33.70;20.20;;;3.20;99.90;;;;;;5093997;28;20052;-92
2022/03/11 04:20:35;;;;;;;32.88;21.05;;;3.20;99.90;;;;;;5095279;28;20051;-89
2022/03/11 04:23:01;;;;;;;32.22;20.88;;;3.70;99.90;;;;;;5124776;28;20044;-91
2022/03/11 04:25:27;;;;;;;32.25;18.92;;;3.10;99.90;;;;;;5113588;28;20138;-93
2022/03/11 04:27:52;;;;;;;31.10;20.23;;;3.10;99.90;;;;;;5077152;28;20043;-91
2022/03/11 04:30:18;;;;;;;33.35;20.85;;;3.90;99.90;;;;;;5076865;28;20142;-92
2022/03/11 04:32:44;;;;;;;33.90;19.75;;;3.20;99.90;;;;;;5093949;28;20040;-91
2022/03/11 04:35:09;;;;;;;33.88;21.98;;;3.10;99.90;;;;;;5111081;28;20065;-92
2022/03/11 04:37:35;;;;;;;32.15;20.05;;;4.30;99.90;;;;;;5084273;28;20085;-89
2022/03/11 04:40:01;;;;;;;32.50;20.35;;;3.10;99.90;;;;;;5087843;28;20048;-92
2022/03/11 04:42:26;;;;;;;32.60;20.33;;;3.80;99.90;;;;;;5093607;28;20052;-89
2022/03/11 04:44:52;;;;;;;35.05;21.42;;;3.20;99.90;;;;;;5110491;28;20058;-93
2022/03/11 04:47:18;;;;;;;30.67;19.95;;;4.10;99.90;;;;;;5110346;28;20122;-92
2022/03/11 04:49:43;;;;;;;32.47;20.33;;;3.00;99.90;;;;;;5093695;28;20047;-90
2022/03/11 04:52:09;;;;;;;33.42;21.40;;;3.70;99.90;;;;;;5093479;28;20455;-91
2022/03/11 04:54:35;;;;;;;32.75;21.23;;;2.90;99.90;;;;;;5076505;28;20396;-92
2022/03/11 04:57:00;;;;;;;31.17;20.88;;;2.90;99.90;;;;;;5094010;28;20052;-90
2022/03/11 04:59:26;;;;;;;32.60;20.85;;;3.70;99.90;;;;;;5110098;28;20047;-89
2022/03/11 05:01:52;;;;;;;33.15;21.20;;;2.80;99.90;;;;;;5110335;28;20063;-90
2022/03/11 05:04:18;;;;;;;33.50;20.98;;;2.80;99.90;;;;;;5094360;28;20044;-89
2022/03/11 05:06:43;;;;;;;38.80;22.02;;;2.70;99.90;;;;;;5097433;28;20054;-90
2022/03/11 05:09:09;;;;;;;33.17;21.17;;;3.10;99.90;;;;;;5114686;28;20173;-91
2022/03/11 05:11:35;;;;;;;36.63;21.85;;;2.70;99.90;;;;;;5097134;28;20055;-91
2022/03/11 05:14:00;;;;;;;36.25;21.70;;;3.40;99.90;;;;;;5114239;28;20450;-91
2022/03/11 05:16:26;;;;;;;33.63;19.60;;;3.90;99.90;;;;;;5096943;28;20112;-92
2022/03/11 05:18:53;;;;;;;32.15;19.40;;;2.80;99.90;;;;;;5114206;28;20092;-91
2022/03/11 05:21:20;;;;;;;33.15;20.48;;;2.90;99.90;;;;;;5096835;28;20055;-91
2022/03/11 05:23:45;;;;;;;36.17;21.67;;;2.70;99.90;;;;;;5114190;28;20121;-92
2022/03/11 05:26:24;;;;;;;34.88;21.17;;;2.70;99.90;;;;;;5097144;28;20471;-92
2022/03/11 05:28:58;;;;;;;33.70;21.30;;;2.70;99.90;;;;;;5098913;28;20403;-91
2022/03/11 05:31:24;;;;;;;33.80;21.20;;;2.60;99.90;;;;;;5080460;28;20399;-91
2022/03/11 05:33:50;;;;;;;24.42;13.60;;;2.80;99.90;;;;;;5080072;28;20052;-89
2022/03/11 05:36:16;;;;;;;34.17;21.10;;;3.10;99.90;;;;;;5079676;28;20054;-92
2022/03/11 05:38:41;;;;;;;32.40;21.25;;;3.60;99.90;;;;;;5062854;28;20082;-91
2022/03/11 05:41:07;;;;;;;32.40;19.38;;;4.00;99.90;;;;;;5113631;28;20077;-91
2022/03/11 05:43:33;;;;;;;34.83;21.63;;;3.10;99.90;;;;;;5113265;28;20491;-91
2022/03/11 05:45:58;;;;;;;34.45;21.85;;;2.60;99.90;;;;;;5113416;28;20058;-90
2022/03/11 05:48:24;;;;;;;31.58;19.98;;;3.40;99.90;;;;;;5105062;28;20031;-87
2022/03/11 05:50:50;;;;;;;34.85;21.95;;;4.10;99.90;;;;;;5100959;28;20043;-90
2022/03/11 05:53:15;;;;;;;35.25;22.13;;;2.60;99.90;;;;;;5096723;28;20407;-91
2022/03/11 05:55:41;;;;;;;33.78;20.80;;;2.50;99.90;;;;;;5113236;28;20040;-91
2022/03/11 05:58:07;;;;;;;33.08;21.35;;;3.20;99.90;;;;;;5096857;28;20104;-92
2022/03/11 06:00:33;;;;;;;36.97;21.77;;;3.70;99.90;;;;;;5095484;28;20371;-93
2022/03/11 06:03:00;;;;;;;33.90;21.42;;;3.90;99.90;;;;;;5112895;28;20065;-92
2022/03/11 06:05:25;;;;;;;33.67;19.42;;;2.60;99.90;;;;;;5103499;27;20050;-89
2022/03/11 06:07:51;;;;;;;35.03;22.65;;;2.50;99.90;;;;;;5116724;27;20475;-90
2022/03/11 06:10:17;;;;;;;36.17;21.35;;;3.30;99.90;;;;;;5133950;27;20046;-91
2022/03/11 06:12:43;;;;;;;33.92;20.40;;;2.50;99.90;;;;;;5133457;27;20047;-94
2022/03/11 06:15:11;;;;;;;39.20;21.50;;;2.50;99.90;;;;;;5132863;27;20047;-93
2022/03/11 06:17:36;;;;;;;32.40;21.00;;;2.50;99.90;;;;;;5118801;27;20093;-92
2022/03/11 06:20:03;;;;;;;38.35;21.70;;;2.50;99.90;;;;;;5097653;28;20048;-85
2022/03/11 06:22:28;;;;;;;33.72;20.90;;;2.50;99.90;;;;;;5121846;27;20518;-86
2022/03/11 06:24:54;;;;;;;30.23;18.48;;;3.70;99.90;;;;;;5102192;28;20082;-86
2022/03/11 06:27:20;;;;;;;32.78;20.35;;;3.70;99.90;;;;;;5117055;27;20050;-86
2022/03/11 06:29:45;;;;;;;33.60;21.17;;;2.60;99.90;;;;;;5133125;27;20474;-86
2022/03/11 06:32:11;;;;;;;33.38;20.63;;;3.80;99.90;;;;;;5111741;27;20050;-86
2022/03/11 06:34:37;;;;;;;32.65;20.60;;;2.80;99.90;;;;;;5144890;27;20043;-86
2022/03/11 06:37:03;;;;;;;32.63;21.17;;;2.70;99.90;;;;;;5141161;27;20061;-85
2022/03/11 06:39:29;;;;;;;35.15;20.77;;;2.80;99.90;;;;;;5093593;27;20043;-85
2022/03/11 06:41:55;;;;;;;32.03;20.23;;;2.80;99.90;;;;;;5117086;27;20597;-85
2022/03/11 06:44:20;;;;;;;33.55;19.95;;;2.90;99.90;;;;;;5099054;27;20038;-86
2022/03/11 06:46:46;;;;;;;34.13;21.52;;;2.90;99.90;;;;;;5088858;28;20055;-85
2022/03/11 06:49:12;;;;;;;34.72;20.85;;;4.00;99.90;;;;;;5129886;27;20084;-84
2022/03/11 06:51:38;;;;;;;33.17;19.10;;;2.70;99.90;;;;;;5089870;28;20048;-86
2022/03/11 06:54:06;;;;;;;31.20;18.48;;;3.30;99.90;;;;;;5113654;27;20058;-85
2022/03/11 06:56:32;;;;;;;33.55;20.58;;;3.40;99.90;;;;;;5134812;27;20039;-85
2022/03/11 06:58:59;;;;;;;31.98;19.52;;;4.00;99.90;;;;;;5102777;27;20058;-85
2022/03/11 07:01:24;;;;;;;21.95;14.32;;;4.90;99.90;;;;;;5138785;27;20051;-86
2022/03/11 07:03:50;;;;;;;29.38;18.67;;;5.60;99.90;;;;;;5123251;27;20055;-88
2022/03/11 07:06:16;;;;;;;32.63;19.52;;;7.10;99.90;;;;;;5107385;27;20051;-87
2022/03/11 07:08:44;;;;;;;22.83;15.25;;;6.40;99.90;;;;;;5122298;27;20130;-87
2022/03/11 07:11:10;;;;;;;27.45;19.27;;;6.60;99.90;;;;;;5121425;27;20050;-87
2022/03/11 07:13:36;;;;;;;29.45;19.52;;;6.70;99.90;;;;;;5119182;27;20051;-86
2022/03/11 07:16:01;;;;;;;27.15;19.00;;;7.20;99.90;;;;;;5134583;27;20043;-87
2022/03/11 07:18:27;;;;;;;26.25;19.17;;;7.00;99.90;;;;;;5117288;27;20054;-88
2022/03/11 07:20:53;;;;;;;26.17;18.20;;;7.30;99.90;;;;;;5101518;27;20055;-86
2022/03/11 07:23:19;;;;;;;27.42;18.27;;;7.70;99.90;;;;;;5132705;27;20055;-87
2022/03/11 07:25:44;;;;;;;24.75;18.05;;;7.90;99.90;;;;;;5114207;27;20530;-87
2022/03/11 07:28:11;;;;;;;27.45;18.15;;;8.30;99.90;;;;;;5113945;27;20047;-88
2022/03/11 07:30:38;;;;;;;30.45;19.08;;;8.60;99.90;;;;;;5112487;27;20402;-88
2022/03/11 07:33:03;;;;;;;24.60;17.58;;;8.60;99.90;;;;;;5093373;28;20096;-88
2022/03/11 07:35:29;;;;;;;26.20;18.27;;;8.70;99.90;;;;;;5096818;28;20040;-87
2022/03/11 07:37:54;;;;;;;26.45;17.85;;;8.20;99.90;;;;;;5076233;28;20293;-87
2022/03/11 07:40:20;;;;;;;26.23;19.83;;;9.00;99.90;;;;;;5093040;28;20036;-88
2022/03/11 07:42:46;;;;;;;27.92;18.90;;;8.90;99.90;;;;;;5092533;28;20101;-86
2022/03/11 07:45:13;;;;;;;24.42;17.13;;;9.30;99.90;;;;;;5093200;28;20079;-87
2022/03/11 07:47:40;;;;;;;28.15;18.70;;;9.80;99.90;;;;;;5102973;27;20107;-86
2022/03/11 07:50:06;;;;;;;22.88;17.25;;;10.00;99.90;;;;;;5097391;27;20507;-88
2022/03/11 07:52:32;;;;;;;25.77;17.98;;;9.80;99.90;;;;;;5107680;28;20064;-88
2022/03/11 07:54:57;;;;;;;23.65;18.17;;;10.40;99.90;;;;;;5124844;27;20051;-88
2022/03/11 07:57:23;;;;;;;25.77;17.98;;;10.30;99.90;;;;;;5124463;27;20035;-88
2022/03/11 07:59:48;;;;;;;25.27;17.55;;;10.10;99.90;;;;;;5114747;28;20090;-90
2022/03/11 08:02:17;;;;;;;23.00;17.42;;;9.90;99.90;;;;;;5109713;27;20043;-87
2022/03/11 08:04:42;;;;;;;22.15;17.95;;;10.20;99.90;;;;;;5119104;27;20070;-89
2022/03/11 08:07:11;;;;;;;24.33;18.33;;;9.90;99.90;;;;;;5113519;28;20077;-89
2022/03/11 08:09:38;;;;;;;24.35;17.83;;;10.10;99.90;;;;;;5130773;28;20051;-88
2022/03/11 08:12:04;;;;;;;24.35;16.90;;;10.10;99.90;;;;;;5130072;28;20154;-88
2022/03/11 08:14:30;;;;;;;23.48;18.50;;;10.80;99.90;;;;;;5112974;28;20513;-88
2022/03/11 08:16:56;;;;;;;22.88;18.73;;;10.60;99.90;;;;;;5079012;28;20131;-88
2022/03/11 08:19:23;;;;;;;24.80;17.95;;;10.40;99.90;;;;;;5107442;28;20126;-88
2022/03/11 08:21:51;;;;;;;23.50;17.70;;;10.50;99.90;;;;;;5128173;27;20043;-89
2022/03/11 08:24:18;;;;;;;24.08;18.58;;;10.80;99.90;;;;;;5110294;28;20070;-88
2022/03/11 08:26:44;;;;;;;23.70;17.55;;;11.00;99.90;;;;;;5110195;28;20055;-88
2022/03/11 08:29:10;;;;;;;21.15;15.65;;;11.00;99.90;;;;;;5109616;28;20043;-88
2022/03/11 08:31:36;;;;;;;20.90;16.33;;;11.20;98.60;;;;;;5092630;28;20043;-87
2022/03/11 08:34:03;;;;;;;24.27;17.92;;;11.20;98.30;;;;;;5103806;28;20047;-88
2022/03/11 08:36:28;;;;;;;27.77;17.52;;;10.60;99.90;;;;;;5112219;28;20039;-85
2022/03/11 08:38:54;;;;;;;22.42;18.13;;;11.10;99.40;;;;;;5124944;27;20043;-85
2022/03/11 08:41:22;;;;;;;24.50;17.90;;;11.00;98.60;;;;;;5119681;27;20059;-85
2022/03/11 08:43:49;;;;;;;23.45;16.90;;;11.50;98.50;;;;;;5130485;27;20109;-86
2022/03/11 08:46:14;;;;;;;25.25;18.73;;;11.70;97.20;;;;;;5113374;27;20516;-87
2022/03/11 08:48:41;;;;;;;26.40;17.63;;;11.60;95.30;;;;;;5133173;27;20042;-86
2022/03/11 08:51:07;;;;;;;23.88;17.58;;;11.30;97.20;;;;;;5115597;27;20058;-86
2022/03/11 08:53:32;;;;;;;23.13;17.58;;;11.00;95.80;;;;;;5133276;27;20035;-86
2022/03/11 08:55:58;;;;;;;27.75;18.35;;;11.00;97.50;;;;;;5118270;27;20039;-87
2022/03/11 08:58:24;;;;;;;24.38;17.70;;;11.10;96.50;;;;;;5112064;28;20043;-86
2022/03/11 09:00:49;;;;;;;23.05;17.52;;;11.00;97.10;;;;;;5111225;27;20148;-88
2022/03/11 09:03:15;;;;;;;26.88;18.60;;;11.50;96.60;;;;;;5130972;27;20062;-87
2022/03/11 09:05:41;;;;;;;25.20;18.80;;;11.90;96.50;;;;;;5130080;27;20571;-85
2022/03/11 09:08:10;;;;;;;23.63;17.58;;;12.10;96.00;;;;;;5130060;27;20251;-87
2022/03/11 09:10:35;;;;;;;24.35;18.00;;;12.10;96.30;;;;;;5126493;27;20049;-88
2022/03/11 09:13:01;;;;;;;23.25;16.70;;;12.60;94.00;;;;;;5131106;27;20059;-88
2022/03/11 09:15:27;;;;;;;26.15;16.55;;;11.80;94.60;;;;;;5097017;27;20059;-86
2022/03/11 09:17:53;;;;;;;24.42;17.85;;;12.00;95.30;;;;;;5100819;27;20051;-89
2022/03/11 09:20:18;;;;;;;25.83;17.38;;;12.20;93.10;;;;;;5097770;27;20047;-88
2022/03/11 09:22:44;;;;;;;23.98;17.77;;;11.90;93.30;;;;;;5115115;27;20494;-88
2022/03/11 09:25:11;;;;;;;25.33;19.23;;;11.70;93.60;;;;;;5122361;27;20093;-88
2022/03/11 09:27:37;;;;;;;25.42;17.33;;;11.60;94.20;;;;;;5061288;28;20050;-87
2022/03/11 09:30:04;;;;;;;28.20;19.65;;;11.60;94.60;;;;;;5130232;27;20035;-88
2022/03/11 09:32:30;;;;;;;26.27;18.60;;;11.40;94.60;;;;;;5115487;27;20042;-88
2022/03/11 09:34:57;;;;;;;27.42;18.95;;;11.50;94.40;;;;;;5082434;27;20081;-88
2022/03/11 09:37:23;;;;;;;24.58;17.55;;;11.40;94.80;;;;;;5124717;27;20050;-87
2022/03/11 09:39:48;;;;;;;25.63;16.98;;;12.00;94.70;;;;;;5108502;27;20561;-86
2022/03/11 09:42:14;;;;;;;24.33;17.48;;;12.00;94.60;;;;;;5128992;27;20077;-87
2022/03/11 09:44:40;;;;;;;23.95;17.38;;;11.80;93.30;;;;;;5125451;27;20023;-87
2022/03/11 09:47:07;;;;;;;25.25;19.10;;;11.50;93.90;;;;;;5113494;27;20448;-86
2022/03/11 09:49:35;;;;;;;24.63;18.50;;;11.60;94.50;;;;;;5110551;27;20073;-87
2022/03/11 09:52:07;;;;;;;25.63;17.60;;;11.50;95.30;;;;;;5114996;27;20121;-86
2022/03/11 09:54:34;;;;;;;27.73;18.25;;;11.60;94.30;;;;;;5118952;27;20036;-85
2022/03/11 09:56:59;;;;;;;27.60;18.52;;;11.00;93.70;;;;;;5113886;27;20051;-86
2022/03/11 09:59:26;;;;;;;26.20;18.25;;;10.70;95.80;;;;;;5111897;27;20939;-86
2022/03/11 10:01:53;;;;;;;30.05;18.30;;;10.80;95.90;;;;;;5096037;27;20122;-88
2022/03/11 10:04:19;;;;;;;23.38;17.45;;;10.60;95.00;;;;;;5096111;27;20491;-89
2022/03/11 10:06:46;;;;;;;23.52;16.35;;;10.60;95.90;;;;;;5108301;27;20045;-89
2022/03/11 10:09:18;;;;;;;27.02;17.10;;;10.70;95.70;;;;;;5109733;27;20311;-88
2022/03/11 10:11:51;;;;;;;26.20;18.58;;;11.00;94.60;;;;;;5107572;27;20528;-88
2022/03/11 10:14:17;;;;;;;26.20;18.53;;;11.20;94.70;;;;;;5111944;27;20043;-87
2022/03/11 10:16:46;;;;;;;22.67;17.33;;;11.90;93.70;;;;;;5114520;27;20494;-88
2022/03/11 10:19:15;;;;;;;24.88;18.20;;;12.00;91.80;;;;;;5072213;27;20043;-89
2022/03/11 10:21:45;;;;;;;25.52;17.63;;;11.80;91.90;;;;;;5119120;27;20036;-90
2022/03/11 10:24:20;;;;;;;25.38;17.98;;;11.50;91.30;;;;;;5094450;27;20036;-88
2022/03/11 10:27:01;;;;;;;23.50;16.17;;;11.40;92.50;;;;;;5106670;27;20051;-91
2022/03/11 10:29:31;;;;;;;25.38;17.08;;;11.30;92.00;;;;;;5079717;27;20091;-88
2022/03/11 10:31:58;;;;;;;27.15;18.10;;;11.00;93.90;;;;;;5089333;27;20039;-87
2022/03/11 10:34:28;;;;;;;24.08;18.30;;;10.70;94.70;;;;;;5101093;28;20059;-90
2022/03/11 10:37:08;;;;;;;23.20;17.08;;;10.70;95.40;;;;;;5112311;27;20046;-92
2022/03/11 10:39:42;;;;;;;26.27;17.95;;;10.30;95.40;;;;;;5092695;27;20435;-90
2022/03/11 10:42:24;;;;;;;24.98;18.05;;;10.40;96.70;;;;;;5111966;27;20056;-90
2022/03/11 10:45:02;;;;;;;25.23;16.52;;;10.60;95.80;;;;;;5109232;27;20051;-90
2022/03/11 10:47:33;;;;;;;28.58;17.23;;;10.90;95.10;;;;;;5109487;27;20162;-90
2022/03/11 10:50:01;;;;;;;24.02;17.20;;;10.90;95.40;;;;;;5095861;27;20066;-89
2022/03/11 10:52:37;;;;;;;24.25;16.00;;;11.00;96.20;;;;;;5131385;27;20043;-89
2022/03/11 10:55:19;;;;;;;25.02;17.33;;;10.90;92.40;;;;;;5104542;27;20075;-86
2022/03/11 10:57:46;;;;;;;23.23;16.95;;;11.30;92.00;;;;;;5125099;27;20083;-88
2022/03/11 11:00:20;;;;;;;21.45;15.48;;;11.00;91.70;;;;;;5097135;27;20135;-88
2022/03/11 11:02:46;;;;;;;;;;;11.30;93.70;;;;;;5098582;27;20086;-90
2022/03/11 11:05:14;;;;;;;22.55;15.88;;;11.20;93.70;;;;;;5119152;27;20371;-90
2022/03/11 11:07:41;;;;;;;22.27;16.00;;;11.20;90.70;;;;;;5111381;28;20550;-87
2022/03/11 11:10:08;;;;;;;24.23;15.65;;;11.50;90.60;;;;;;5110807;28;20568;-88
2022/03/11 11:12:34;;;;;;;24.35;16.55;;;11.20;91.50;;;;;;5077663;28;20043;-88
2022/03/11 11:14:59;;;;;;;22.30;15.93;;;11.30;91.90;;;;;;5094009;28;20040;-88
2022/03/11 11:17:27;;;;;;;22.13;15.50;;;11.10;91.60;;;;;;5094337;28;20052;-88
2022/03/11 11:19:53;;;;;;;22.13;16.52;;;10.80;90.80;;;;;;5118457;27;20508;-88
2022/03/11 11:22:19;;;;;;;21.77;15.18;;;10.70;91.90;;;;;;5119785;27;20030;-87
2022/03/11 11:24:45;;;;;;;22.38;15.10;;;10.60;92.10;;;;;;5141828;27;20043;-88
2022/03/11 11:27:10;;;;;;;21.38;15.32;;;10.50;92.50;;;;;;5093837;27;20054;-88
2022/03/11 11:29:36;;;;;;;26.85;16.75;;;10.50;92.50;;;;;;5096083;27;20084;-87
2022/03/11 11:32:06;;;;;;;26.25;17.02;;;10.60;92.90;;;;;;5092025;27;20046;-85
2022/03/11 11:34:37;;;;;;;22.63;15.73;;;10.70;92.60;;;;;;5108029;27;20161;-86
2022/03/11 11:37:03;;;;;;;22.23;15.68;;;10.70;93.20;;;;;;5094134;27;20043;-87
2022/03/11 11:39:37;;;;;;;22.60;16.67;;;10.60;94.00;;;;;;5094628;27;20080;-87
2022/03/11 11:42:09;;;;;;;20.17;14.65;;;10.70;94.40;;;;;;5127608;27;20050;-86
2022/03/11 11:44:36;;;;;;;23.15;16.80;;;10.80;95.20;;;;;;5126650;27;20043;-86
2022/03/11 11:47:20;;;;;;;25.15;16.10;;;10.60;95.00;;;;;;5094955;28;20054;-88
2022/03/11 11:49:49;;;;;;;26.35;16.90;;;10.70;93.90;;;;;;5107719;27;20055;-86
2022/03/11 11:52:33;;;;;;;22.55;15.40;;;10.70;93.50;;;;;;5117676;27;20030;-87
2022/03/11 11:55:28;;;;;;;22.30;13.88;;;10.70;94.30;;;;;;5121023;27;20096;-88
2022/03/11 11:57:55;;;;;;;22.40;15.90;;;10.80;93.00;;;;;;5086452;27;20051;-89
2022/03/11 12:00:27;;;;;;;17.40;10.55;;;10.70;93.40;;;;;;5126361;27;20509;-88
2022/03/11 12:02:53;;;;;;;22.40;15.40;;;10.80;94.40;;;;;;5122295;27;20039;-89
2022/03/11 12:05:44;;;;;;;24.63;15.05;;;10.80;93.70;;;;;;5084608;28;20054;-92
2022/03/11 12:08:31;;;;;;;21.48;15.05;;;10.60;93.60;;;;;;5119033;28;20039;-87
2022/03/11 12:10:57;;;;;;;22.40;14.48;;;10.60;92.80;;;;;;5117010;28;20051;-85
2022/03/11 12:13:36;;;;;;;18.77;12.75;;;11.00;93.60;;;;;;5098019;28;20510;-85
2022/03/11 12:16:18;;;;;;;26.02;16.23;;;11.20;93.80;;;;;;5109712;28;20479;-89
2022/03/11 12:18:44;;;;;;;23.25;14.55;;;11.20;93.40;;;;;;5082109;28;20387;-88
2022/03/11 12:21:40;;;;;;;20.02;14.65;;;11.30;92.10;;;;;;5086583;28;20043;-86
2022/03/11 12:24:34;;;;;;;21.77;14.20;;;11.40;90.50;;;;;;5090152;28;20058;-86
2022/03/11 12:27:00;;;;;;;24.77;15.63;;;11.70;90.40;;;;;;5109602;28;20047;-88
2022/03/11 12:29:33;;;;;;;18.75;13.95;;;11.70;88.80;;;;;;5112246;28;20047;-86
2022/03/11 12:31:58;;;;;;;18.20;13.75;;;11.70;87.80;;;;;;5121664;28;20039;-86
2022/03/11 12:34:24;;;;;;;21.27;14.27;;;11.70;87.50;;;;;;5123588;28;20542;-85
2022/03/11 12:36:50;;;;;;;18.38;14.07;;;11.70;86.50;;;;;;5113147;28;20138;-85